createdAt,value
2023-01-19T00:04:44.401Z,23.20
2023-01-19T00:09:47.599Z,23.10
2023-01-19T00:14:50.431Z,22.90
2023-01-19T00:19:53.234Z,23.80
2023-01-19T00:24:56.703Z,23.90
2023-01-19T00:29:59.547Z,23.40
2023-01-19T00:35:02.391Z,24.20
2023-01-19T00:40:07.188Z,24.70
2023-01-19T00:45:18.671Z,24.50
2023-01-19T00:50:21.543Z,23.70
2023-01-19T00:55:24.411Z,24.20
2023-01-19T01:00:27.785Z,25.00
2023-01-19T01:05:30.688Z,23.60
2023-01-19T01:10:33.675Z,23.60
2023-01-19T01:15:36.558Z,23.30
2023-01-19T01:20:39.453Z,23.70
2023-01-19T01:25:42.610Z,22.50
2023-01-19T01:30:45.425Z,22.90
2023-01-19T01:35:52.095Z,24.70
2023-01-19T01:40:54.891Z,24.10
2023-01-19T01:45:57.876Z,23.00
2023-01-19T01:51:22.853Z,23.80
2023-01-19T01:56:32.451Z,24.20
2023-01-19T02:01:55.086Z,22.70
2023-01-19T02:07:17.179Z,23.60
2023-01-19T02:12:38.889Z,24.70
2023-01-19T02:17:42.595Z,23.90
2023-01-19T02:22:50.150Z,23.50
2023-01-19T02:27:52.970Z,25.10
2023-01-19T02:32:55.762Z,23.70
2023-01-19T02:37:58.764Z,23.70
2023-01-19T02:43:02.053Z,23.30
2023-01-19T02:48:06.029Z,25.00
2023-01-19T02:53:25.438Z,24.40
2023-01-19T02:59:03.191Z,23.30
2023-01-19T03:04:37.816Z,25.00
2023-01-19T03:09:52.702Z,23.00
2023-01-19T03:14:59.896Z,24.60
2023-01-19T03:20:03.002Z,23.40
2023-01-19T03:25:07.063Z,24.10
2023-01-19T03:30:14.630Z,24.30
2023-01-19T03:35:18.382Z,24.50
2023-01-19T03:40:21.162Z,25.50
2023-01-19T03:45:24.013Z,24.90
2023-01-19T03:50:29.682Z,24.30
2023-01-19T03:55:33.263Z,24.00
2023-01-19T04:00:36.615Z,25.40
2023-01-19T04:05:39.716Z,24.70
2023-01-19T04:10:42.562Z,26.20
2023-01-19T04:15:45.374Z,25.00
2023-01-19T04:20:48.273Z,23.70
2023-01-19T04:25:51.058Z,24.60
2023-01-19T04:30:54.799Z,23.60
2023-01-19T04:35:57.699Z,23.20
2023-01-19T04:41:00.469Z,25.40
2023-01-19T04:46:03.386Z,24.10
2023-01-19T04:51:06.185Z,23.80
2023-01-19T04:56:09.150Z,24.50
2023-01-19T05:01:11.936Z,23.30
2023-01-19T05:06:14.784Z,21.90
2023-01-19T05:11:17.632Z,22.80
2023-01-19T05:16:20.497Z,21.20
2023-01-19T05:21:23.339Z,20.30
2023-01-19T05:26:26.189Z,21.40
2023-01-19T05:31:29.134Z,19.30
2023-01-19T05:36:32.679Z,18.30
2023-01-19T05:41:35.834Z,16.70
2023-01-19T05:46:39.865Z,18.80
2023-01-19T05:51:45.551Z,19.90
2023-01-19T05:56:48.315Z,18.20
2023-01-19T06:01:54.328Z,18.50
2023-01-19T06:06:57.135Z,20.30
2023-01-19T06:11:59.906Z,19.90
2023-01-19T06:17:02.764Z,19.20
2023-01-19T06:22:06.318Z,18.00
2023-01-19T06:27:09.354Z,17.40
2023-01-19T06:32:12.264Z,17.20
2023-01-19T06:37:16.770Z,16.80
2023-01-19T06:42:19.595Z,17.00
2023-01-19T06:47:23.365Z,15.80
2023-01-19T06:52:26.179Z,17.50
2023-01-19T06:57:28.961Z,16.90
2023-01-19T07:02:31.915Z,16.20
2023-01-19T07:07:36.676Z,16.80
2023-01-19T07:12:39.503Z,16.90
2023-01-19T07:17:43.722Z,16.70
2023-01-19T07:22:46.692Z,18.10
2023-01-19T07:27:49.528Z,18.20
2023-01-19T07:32:56.870Z,19.00
2023-01-19T07:37:59.774Z,18.50
2023-01-19T07:43:02.987Z,19.90
2023-01-19T07:48:06.686Z,19.20
2023-01-19T07:53:09.947Z,17.80
2023-01-19T07:58:12.716Z,19.10
2023-01-19T08:03:15.718Z,18.70
2023-01-19T08:08:19.343Z,18.40
2023-01-19T08:13:22.197Z,19.20
2023-01-19T08:18:25.007Z,20.00
2023-01-19T08:23:28.204Z,19.10
2023-01-19T08:28:31.580Z,18.90
2023-01-19T08:33:34.480Z,20.40
2023-01-19T08:38:39.811Z,19.80
2023-01-19T08:43:43.015Z,18.80
2023-01-19T08:48:45.863Z,18.00
2023-01-19T08:53:48.671Z,19.30
2023-01-19T08:59:07.651Z,19.00
2023-01-19T09:04:12.213Z,16.70
2023-01-19T09:09:15.153Z,18.00
2023-01-19T09:14:18.018Z,17.90
2023-01-19T09:19:21.304Z,15.50
2023-01-19T09:24:24.156Z,10.70
2023-01-19T09:29:27.349Z,10.20
2023-01-19T09:34:31.451Z,12.10
2023-01-19T09:39:34.281Z,13.60
2023-01-19T09:44:37.184Z,13.60
2023-01-19T09:49:44.039Z,14.00
2023-01-19T09:54:53.062Z,15.70
2023-01-19T09:59:59.815Z,15.10
2023-01-19T10:05:32.689Z,12.50
2023-01-19T10:10:37.524Z,9.90
2023-01-19T10:16:01.992Z,11.00
2023-01-19T10:21:33.657Z,10.50
2023-01-19T10:26:55.847Z,10.20
2023-01-19T10:32:34.136Z,11.60
2023-01-19T10:37:37.966Z,13.70
2023-01-19T10:42:42.029Z,13.10
2023-01-19T10:47:46.294Z,13.10
2023-01-19T10:52:51.691Z,12.60
2023-01-19T10:57:54.550Z,14.20
2023-01-19T11:02:57.443Z,14.10
2023-01-19T11:08:00.362Z,13.90
2023-01-19T11:13:12.758Z,14.40
2023-01-19T11:18:29.885Z,14.70
2023-01-19T11:23:43.119Z,16.40
2023-01-19T11:28:47.597Z,15.60
2023-01-19T11:33:52.334Z,15.40
2023-01-19T11:39:00.590Z,16.40
2023-01-19T11:44:26.842Z,17.10
2023-01-19T11:49:46.727Z,15.50
2023-01-19T11:54:56.551Z,15.80
2023-01-19T12:00:03.657Z,17.40
2023-01-19T12:05:06.941Z,15.80
2023-01-19T12:10:26.622Z,16.50
2023-01-19T12:15:42.989Z,15.90
2023-01-19T12:20:52.475Z,16.70
2023-01-19T12:26:27.909Z,16.70
2023-01-19T12:31:31.017Z,15.60
2023-01-19T12:36:36.664Z,15.60
2023-01-19T12:41:40.319Z,15.30
2023-01-19T12:47:08.223Z,14.20
2023-01-19T12:52:34.525Z,16.50
2023-01-19T12:57:58.263Z,13.70
2023-01-19T13:03:18.495Z,14.70
2023-01-19T13:08:31.203Z,19.00
2023-01-19T13:13:41.232Z,19.10
2023-01-19T13:18:58.546Z,21.40
2023-01-19T13:24:22.484Z,20.30
2023-01-19T13:29:36.162Z,19.00
2023-01-19T13:34:40.391Z,19.50
2023-01-19T13:39:49.169Z,20.20
2023-01-19T13:49:57.732Z,18.60
2023-01-19T13:55:03.458Z,19.10
2023-01-19T14:00:11.919Z,21.50
2023-01-19T14:05:30.360Z,20.70
2023-01-19T14:10:34.991Z,19.10
2023-01-19T14:15:38.650Z,20.90
2023-01-19T14:20:42.335Z,18.90
2023-01-19T14:25:45.179Z,18.90
2023-01-19T14:30:59.507Z,18.50
2023-01-19T14:36:33.370Z,19.40
2023-01-19T14:41:40.793Z,19.00
2023-01-19T14:46:47.618Z,18.80
2023-01-19T14:51:50.463Z,18.60
2023-01-19T14:56:53.891Z,18.10
2023-01-19T15:01:56.826Z,18.80
2023-01-19T15:06:59.688Z,17.90
2023-01-19T15:12:02.454Z,19.70
2023-01-19T15:17:05.255Z,18.00
2023-01-19T15:22:13.039Z,18.00
2023-01-19T15:27:16.223Z,18.10
2023-01-19T15:32:19.006Z,19.00
2023-01-19T15:37:21.911Z,18.20
2023-01-19T15:42:24.779Z,15.90
2023-01-19T15:47:27.624Z,17.20
2023-01-19T15:52:30.394Z,15.70
2023-01-19T15:57:35.152Z,16.70
2023-01-19T16:02:38.042Z,16.30
2023-01-19T16:07:40.993Z,17.00
2023-01-19T16:12:45.217Z,16.10
2023-01-19T16:17:49.445Z,16.70
2023-01-19T16:22:52.886Z,14.90
2023-01-19T16:27:57.027Z,15.00
2023-01-19T16:32:59.940Z,14.10
2023-01-19T16:38:02.854Z,13.10
2023-01-19T16:43:06.064Z,13.40
2023-01-19T16:48:08.987Z,12.30
2023-01-19T16:53:11.811Z,12.80
2023-01-19T16:58:14.808Z,12.80
2023-01-19T17:03:20.902Z,13.50
2023-01-19T17:08:24.091Z,12.70
2023-01-19T17:13:27.285Z,12.10
2023-01-19T17:18:32.842Z,12.30
2023-01-19T17:23:37.473Z,13.20
2023-01-19T17:28:40.493Z,13.20
2023-01-19T17:33:45.100Z,12.70
2023-01-19T17:38:58.609Z,14.20
2023-01-19T17:44:02.500Z,13.90
2023-01-19T17:49:06.711Z,13.60
2023-01-19T17:54:11.028Z,15.30
2023-01-19T17:59:13.902Z,16.40
2023-01-19T18:04:16.706Z,17.90
2023-01-19T18:09:19.559Z,19.20
2023-01-19T18:14:22.397Z,19.50
2023-01-19T18:19:25.256Z,20.00
2023-01-19T18:25:03.548Z,21.10
2023-01-19T18:30:40.470Z,19.50
2023-01-19T18:35:51.755Z,19.00
2023-01-19T18:41:03.261Z,20.50
2023-01-19T18:55:59.799Z,17.00
2023-01-19T19:01:33.633Z,19.50
2023-01-19T19:06:37.057Z,19.00
2023-01-19T19:11:40.067Z,20.40
2023-01-19T19:16:48.001Z,20.30
2023-01-19T19:21:54.721Z,23.10
2023-01-19T19:26:59.343Z,21.40
2023-01-19T19:33:21.734Z,21.40
2023-01-19T19:38:29.547Z,22.50
2023-01-19T19:43:34.428Z,22.90
2023-01-19T19:48:39.427Z,22.20
2023-01-19T19:53:43.394Z,23.30
2023-01-19T20:14:20.746Z,22.20
2023-01-19T20:19:24.289Z,23.20
2023-01-19T20:24:27.430Z,22.30
2023-01-19T20:29:30.746Z,21.60
2023-01-19T20:40:51.719Z,19.70
2023-01-19T21:00:21.443Z,23.40
2023-01-19T21:06:27.957Z,22.50
2023-01-19T21:11:30.919Z,17.60
2023-01-19T21:16:34.290Z,23.00
2023-01-19T21:21:37.182Z,23.10
2023-01-19T21:26:41.828Z,21.70
2023-01-19T21:31:44.731Z,25.00
2023-01-19T21:36:47.615Z,21.30
2023-01-19T21:41:50.397Z,21.30
2023-01-19T21:46:54.713Z,23.00
2023-01-19T21:51:57.642Z,22.20
2023-01-19T21:57:02.661Z,20.10
2023-01-19T22:02:06.107Z,20.90
2023-01-19T22:07:09.035Z,21.70
2023-01-19T22:12:11.852Z,20.40
2023-01-19T22:17:14.631Z,20.30
2023-01-19T22:22:17.414Z,21.80
2023-01-19T22:27:20.231Z,21.20
2023-01-19T22:32:23.059Z,20.70
2023-01-19T22:37:25.877Z,20.00
2023-01-19T22:42:28.682Z,20.40
2023-01-19T22:47:31.575Z,19.60
2023-01-19T22:52:34.333Z,21.10
2023-01-19T22:57:37.432Z,20.80
2023-01-19T23:02:40.376Z,21.80
2023-01-19T23:07:43.223Z,21.70
2023-01-19T23:12:46.762Z,20.50
2023-01-19T23:17:52.959Z,22.50
2023-01-19T23:22:55.751Z,22.90
2023-01-19T23:27:58.541Z,23.40
2023-01-19T23:33:02.824Z,25.60
2023-01-19T23:38:05.875Z,26.10
2023-01-19T23:43:08.685Z,27.20
2023-01-19T23:48:11.508Z,24.40
2023-01-19T23:53:14.277Z,23.70
2023-01-19T23:58:17.138Z,26.10
